Time;durP1;ratioP1;P1;durP2;ratioP2;P2;SDS_P1;SDS_P2;PMS_P1;PMS_P2;Temp;Humidity;BMP_temperature;BMP_pressure;BME280_temperature;BME280_humidity;BME280_pressure;Samples;Min_cycle;Max_cycle;Signal;HPM_P1;HPM_P2
2023/04/05 00:01:19;;;;;;;26.42;20.17;;;7.60;99.90;;;7.83;70.45;102367.94;4995023;28;20043;-73
2023/04/05 00:03:47;;;;;;;22.45;18.65;;;7.60;99.90;;;7.89;70.70;102360.25;4995241;28;20046;-73
2023/04/05 00:06:16;;;;;;;24.10;19.80;;;7.60;99.90;;;7.88;70.55;102361.06;4995200;28;20122;-73
2023/04/05 00:08:48;;;;;;;23.75;18.33;;;7.60;99.90;;;6.99;70.82;102221.38;4994882;28;20042;-73
2023/04/05 00:11:17;;;;;;;22.05;18.02;;;7.50;99.90;;;7.72;70.97;102356.19;4995197;28;20057;-72
2023/04/05 00:13:46;;;;;;;25.13;19.98;;;7.40;99.90;;;7.65;70.69;102354.19;4994730;28;20043;-72
2023/04/05 00:16:15;;;;;;;20.63;17.20;;;7.30;99.90;;;7.47;70.99;102345.72;4993714;28;20145;-73
2023/04/05 00:18:48;;;;;;;22.85;17.65;;;7.30;99.90;;;7.43;71.50;102322.81;4994707;28;20108;-72
2023/04/05 00:21:20;;;;;;;26.38;19.83;;;7.30;99.90;;;7.52;70.88;102346.78;4995269;28;20050;-73
2023/04/05 00:23:50;;;;;;;27.23;19.83;;;7.20;99.90;;;7.50;70.85;102343.19;4994646;28;20046;-73
2023/04/05 00:26:19;;;;;;;27.90;19.55;;;7.10;99.90;;;7.50;71.08;102348.47;4993573;28;20055;-73
2023/04/05 00:28:53;;;;;;;25.23;18.35;;;7.10;99.90;;;7.62;71.55;102348.84;4993602;28;20101;-72
2023/04/05 00:31:21;;;;;;;21.98;17.42;;;7.20;99.90;;;7.66;72.08;102337.56;4994772;28;20109;-72
2023/04/05 00:33:50;;;;;;;18.02;15.38;;;7.40;99.90;;;7.66;71.91;102345.47;4994684;28;20130;-72
2023/04/05 00:36:20;;;;;;;20.65;16.80;;;7.30;99.90;;;7.56;72.14;102339.84;4993493;28;20137;-72
2023/04/05 00:38:50;;;;;;;14.77;13.27;;;7.30;99.90;;;7.36;72.53;102317.25;4994915;28;20050;-73
2023/04/05 00:41:18;;;;;;;14.13;12.63;;;7.20;99.90;;;7.51;72.82;102341.47;4993239;28;20074;-72
2023/04/05 00:43:47;;;;;;;12.80;11.55;;;7.10;99.90;;;7.53;72.91;102339.78;4994420;28;20046;-73
2023/04/05 00:46:16;;;;;;;15.05;13.45;;;7.20;99.90;;;7.56;71.94;102345.13;4994234;28;20042;-72
2023/04/05 00:48:45;;;;;;;20.23;16.45;;;7.20;99.90;;;7.60;71.92;102341.75;4994347;28;20510;-72
2023/04/05 00:51:14;;;;;;;25.75;19.45;;;7.30;99.90;;;7.58;71.57;102332.91;4994257;28;20077;-73
2023/04/05 00:53:43;;;;;;;23.42;19.23;;;7.20;99.90;;;7.59;71.47;102338.22;4993235;28;20141;-72
2023/04/05 00:56:14;;;;;;;24.27;19.25;;;7.30;99.90;;;7.60;71.85;102331.22;4994218;28;20558;-72
2023/04/05 00:58:42;;;;;;;22.90;18.38;;;7.30;99.90;;;7.59;72.23;102335.56;4994300;28;20077;-72
2023/04/05 01:01:21;;;;;;;20.30;16.95;;;7.30;99.90;;;7.46;72.38;102317.63;4992885;28;20152;-73
2023/04/05 01:03:53;;;;;;;24.48;17.63;;;7.20;99.90;;;7.49;72.25;102332.63;4993862;28;20080;-72
2023/04/05 01:06:37;;;;;;;19.40;16.20;;;7.20;99.90;;;7.46;72.32;102321.97;4993047;28;20461;-72
2023/04/05 01:09:17;;;;;;;13.23;11.93;;;7.10;99.90;;;7.39;73.27;102326.19;4994112;28;20077;-73
2023/04/05 01:11:48;;;;;;;15.40;13.80;;;7.10;99.90;;;7.24;74.43;102299.34;4994030;28;20459;-72
2023/04/05 01:14:17;;;;;;;17.77;14.38;;;7.10;99.90;;;7.49;74.84;102322.97;4994076;28;20132;-73
2023/04/05 01:16:48;;;;;;;14.32;12.50;;;7.10;99.90;;;7.69;73.92;102320.94;4992630;28;20038;-72
2023/04/05 01:19:17;;;;;;;14.68;12.88;;;7.30;99.90;;;7.54;73.45;102316.13;4993733;28;20050;-72
2023/04/05 01:22:16;;;;;;;10.07;9.18;;;7.20;99.90;;;7.46;73.59;102312.34;4993896;28;20048;-72
2023/04/05 01:25:18;;;;;;;12.27;11.00;;;7.20;99.90;;;7.28;72.96;102307.41;4993669;28;20440;-72
2023/04/05 01:28:18;;;;;;;12.32;11.18;;;7.10;99.90;;;7.21;72.67;102299.25;4993999;28;20046;-72
2023/04/05 01:30:55;;;;;;;17.38;13.80;;;7.00;99.90;;;7.26;72.59;102306.47;4992477;28;20104;-72
2023/04/05 01:33:33;;;;;;;18.80;14.20;;;6.90;99.90;;;7.32;72.06;102305.75;4993993;28;20046;-72
2023/04/05 01:36:09;;;;;;;17.58;14.95;;;7.00;99.90;;;7.36;72.13;102297.09;4992381;28;20092;-72
2023/04/05 01:38:40;;;;;;;17.67;15.00;;;7.10;99.90;;;7.42;72.09;102301.66;4993425;28;20042;-72
2023/04/05 01:41:09;;;;;;;18.45;15.48;;;7.10;99.90;;;7.33;71.83;102294.41;4993664;28;20049;-72
2023/04/05 01:43:38;;;;;;;18.60;15.13;;;7.00;99.90;;;7.22;72.00;102287.88;4993727;28;20082;-72
2023/04/05 01:46:08;;;;;;;16.73;13.95;;;7.00;99.90;;;7.18;72.21;102289.53;4993361;28;20047;-72
2023/04/05 01:48:37;;;;;;;11.80;10.27;;;6.90;99.90;;;7.08;72.88;102276.03;4993503;28;20108;-73
2023/04/05 01:51:05;;;;;;;9.20;8.35;;;6.90;99.90;;;6.84;73.18;102259.44;4992104;28;20054;-73
2023/04/05 01:53:34;;;;;;;12.65;10.63;;;6.80;99.90;;;7.10;73.43;102279.63;4992281;28;20145;-72
2023/04/05 01:56:02;;;;;;;19.92;13.63;;;6.70;99.90;;;7.27;73.51;102275.78;4992116;28;20046;-73
2023/04/05 01:58:31;;;;;;;17.45;13.45;;;6.90;99.90;;;7.41;73.00;102276.22;4992095;28;20108;-73
2023/04/05 02:00:59;;;;;;;20.40;14.00;;;7.00;99.90;;;7.46;72.28;102272.88;4992130;28;20039;-72
2023/04/05 02:03:29;;;;;;;17.50;14.43;;;7.10;99.90;;;7.62;71.26;102267.22;4994116;28;20046;-72
2023/04/05 02:05:58;;;;;;;20.52;15.15;;;7.30;99.90;;;7.51;71.33;102268.63;4996082;28;20042;-74
2023/04/05 02:08:27;;;;;;;23.00;15.52;;;7.20;99.90;;;7.42;71.10;102260.44;4997313;28;20051;-72
2023/04/05 02:10:55;;;;;;;11.77;9.50;;;7.10;99.90;;;7.30;72.11;102253.06;4997329;28;20121;-72
2023/04/05 02:13:24;;;;;;;14.13;11.25;;;7.00;99.90;;;7.25;72.00;102259.03;4995917;28;20372;-73
2023/04/05 02:15:52;;;;;;;23.48;15.18;;;6.90;99.90;;;7.30;72.42;102245.19;4997501;28;20038;-72
2023/04/05 02:18:21;;;;;;;29.75;16.88;;;7.00;99.90;;;7.23;71.66;102250.22;4996054;28;20140;-72
2023/04/05 02:20:52;;;;;;;28.60;18.02;;;7.00;99.90;;;7.28;71.61;102248.59;4995710;28;20550;-72
2023/04/05 02:23:20;;;;;;;31.63;16.92;;;7.00;99.90;;;7.34;71.39;102251.41;4997161;28;20089;-72
2023/04/05 02:25:49;;;;;;;29.95;17.52;;;7.10;99.90;;;7.35;70.74;102245.34;4997001;28;20100;-72
2023/04/05 02:28:17;;;;;;;33.58;18.60;;;7.10;99.90;;;7.40;70.78;102246.34;4995604;28;20050;-74
2023/04/05 02:30:45;;;;;;;33.05;17.38;;;7.20;99.90;;;7.49;70.41;102249.25;4996958;28;20047;-72
2023/04/05 02:33:14;;;;;;;31.80;18.08;;;7.20;99.90;;;7.51;70.11;102246.69;4995567;28;20042;-72
2023/04/05 02:35:42;;;;;;;25.60;16.50;;;7.30;99.90;;;7.35;69.94;102213.75;4996855;28;20050;-72
2023/04/05 02:38:12;;;;;;;27.45;16.75;;;7.30;99.90;;;7.51;69.47;102249.31;4995512;28;20495;-72
2023/04/05 02:40:41;;;;;;;21.27;15.07;;;7.20;99.90;;;7.59;69.56;102246.06;4995578;28;20142;-72
2023/04/05 02:43:10;;;;;;;23.85;16.15;;;7.30;99.90;;;7.64;69.35;102240.94;4995672;28;20094;-72
2023/04/05 02:45:39;;;;;;;21.85;15.13;;;7.40;99.90;;;7.67;69.07;102241.91;4995359;28;20054;-72
2023/04/05 02:48:08;;;;;;;22.10;14.80;;;7.40;99.90;;;7.72;68.77;102248.22;4995323;28;20077;-73
2023/04/05 02:50:36;;;;;;;23.80;15.30;;;7.50;99.90;;;7.76;68.57;102238.66;4995283;28;20053;-73
2023/04/05 02:53:05;;;;;;;20.98;15.25;;;7.50;99.90;;;7.80;68.42;102241.41;4995259;28;20049;-72
2023/04/05 02:55:35;;;;;;;21.75;16.52;;;7.60;99.90;;;7.81;68.25;102243.22;4995202;28;20054;-72
2023/04/05 02:58:03;;;;;;;26.33;16.05;;;7.60;99.90;;;7.85;68.11;102236.28;4996504;28;20076;-73
2023/04/05 03:00:37;;;;;;;21.65;14.88;;;7.60;99.90;;;7.82;68.13;102238.84;4995383;28;20100;-74
2023/04/05 03:03:07;;;;;;;19.23;14.43;;;7.50;99.90;;;7.81;68.29;102235.31;4995142;28;20046;-73
2023/04/05 03:05:42;;;;;;;24.27;14.93;;;7.50;99.90;;;7.81;68.25;102232.66;4994729;28;20297;-73
2023/04/05 03:08:17;;;;;;;21.23;14.85;;;7.50;99.90;;;7.78;68.21;102224.66;4995091;28;20054;-72
2023/04/05 03:10:55;;;;;;;;;;;7.50;99.90;;;7.67;68.48;102231.38;4996721;28;20046;-72
2023/04/05 03:13:23;;;;;;;19.50;13.82;;;7.40;99.90;;;7.67;68.42;102239.28;4994742;28;19977;-73
2023/04/05 03:15:54;;;;;;;23.20;14.63;;;7.40;99.90;;;7.70;68.20;102233.22;4993748;28;20081;-72
2023/04/05 03:18:25;;;;;;;20.90;14.48;;;7.40;99.90;;;7.62;67.93;102227.72;4994844;28;20046;-72
2023/04/05 03:20:56;;;;;;;;;;;7.30;99.90;;;7.60;68.08;102226.78;4995296;28;20141;-72
2023/04/05 03:23:29;;;;;;;20.90;15.05;;;7.30;99.90;;;7.60;67.99;102221.53;4994675;28;19921;-73
2023/04/05 03:26:01;;;;;;;22.58;15.30;;;7.30;99.90;;;7.70;68.52;102230.59;4994443;28;20042;-73
2023/04/05 03:28:34;;;;;;;21.25;15.43;;;7.30;99.90;;;7.72;68.87;102221.88;4994647;28;20052;-72
2023/04/05 03:31:06;;;;;;;24.00;16.00;;;7.40;99.90;;;7.64;68.94;102223.41;4994680;28;20043;-73
2023/04/05 03:33:35;;;;;;;21.23;15.48;;;7.30;99.90;;;7.49;68.92;102217.66;4994814;28;20050;-73
2023/04/05 03:36:05;;;;;;;24.23;14.73;;;7.20;99.90;;;7.52;68.90;102220.41;4994702;28;20089;-72
2023/04/05 03:38:36;;;;;;;24.27;14.85;;;7.20;99.90;;;7.31;68.70;102190.81;4994483;28;20058;-73
2023/04/05 03:41:12;;;;;;;18.70;14.70;;;7.10;99.90;;;7.41;68.82;102211.31;4994612;28;20054;-73
2023/04/05 03:43:40;;;;;;;21.27;14.43;;;7.10;99.90;;;7.39;68.74;102217.34;4995728;28;20488;-73
2023/04/05 03:46:08;;;;;;;17.42;14.10;;;7.00;99.90;;;7.35;69.46;102213.75;4995259;28;20046;-73
2023/04/05 03:48:37;;;;;;;20.58;15.05;;;7.00;99.90;;;7.28;69.04;102199.50;4995565;28;20042;-73
2023/04/05 03:51:06;;;;;;;19.35;13.70;;;7.00;99.90;;;7.30;69.66;102208.34;4995450;28;20125;-73
2023/04/05 03:53:35;;;;;;;19.00;14.57;;;7.00;99.90;;;7.26;69.66;102200.28;4994228;28;20069;-73
2023/04/05 03:56:05;;;;;;;20.17;14.45;;;7.00;99.90;;;7.21;69.96;102194.00;4994171;28;20297;-73
2023/04/05 03:58:42;;;;;;;16.98;14.50;;;6.90;99.90;;;7.21;70.72;102196.63;4995392;28;20038;-73
2023/04/05 04:01:12;;;;;;;21.08;14.05;;;6.90;99.90;;;7.15;71.16;102196.44;4994124;28;20061;-73
2023/04/05 04:03:41;;;;;;;21.90;16.30;;;6.80;99.90;;;7.05;71.03;102191.75;4995451;28;20043;-73
2023/04/05 04:06:10;;;;;;;20.80;16.20;;;6.70;99.90;;;7.14;70.79;102186.78;4993869;28;20046;-72
2023/04/05 04:08:39;;;;;;;29.85;16.83;;;6.80;99.90;;;7.25;70.78;102195.88;4993775;28;20050;-73
2023/04/05 04:11:08;;;;;;;19.40;14.98;;;6.90;99.90;;;7.20;70.18;102186.97;4993811;28;20145;-73
2023/04/05 04:13:39;;;;;;;22.05;15.98;;;6.90;99.90;;;7.11;70.17;102181.41;4993886;28;20141;-73
2023/04/05 04:16:29;;;;;;;21.23;15.43;;;6.80;99.90;;;7.20;70.20;102190.47;4990868;28;20054;-73
2023/04/05 04:19:09;;;;;;;22.00;15.02;;;6.90;99.90;;;7.20;70.80;102197.50;4993619;28;20073;-73
2023/04/05 04:21:49;;;;;;;21.35;14.77;;;6.90;99.90;;;6.95;70.80;102187.06;4993629;28;20046;-73
2023/04/05 04:24:45;;;;;;;18.58;14.93;;;6.70;99.90;;;6.74;72.34;102183.72;4994318;28;20054;-73
2023/04/05 04:27:34;;;;;;;64.57;16.88;;;6.40;99.90;;;6.66;73.11;102180.00;4995013;28;20061;-73
2023/04/05 04:30:33;;;;;;;18.70;15.50;;;6.30;99.90;;;6.61;72.89;102186.81;4975384;28;20091;-73
2023/04/05 04:33:28;;;;;;;20.42;16.27;;;6.30;99.90;;;6.44;72.63;102193.25;4993706;28;20522;-73
2023/04/05 04:36:33;;;;;;;22.05;15.52;;;6.10;99.90;;;6.50;72.44;102188.22;4993354;28;20050;-72
2023/04/05 04:39:26;;;;;;;20.77;16.15;;;6.20;99.90;;;6.73;72.02;102188.13;4993908;28;20051;-72
2023/04/05 04:42:24;;;;;;;22.35;15.70;;;6.40;99.90;;;6.77;71.88;102181.22;4989647;28;20070;-72
2023/04/05 04:45:11;;;;;;;21.95;15.25;;;6.50;99.90;;;6.81;71.71;102188.38;4993097;28;20093;-73
2023/04/05 04:48:16;;;;;;;25.90;16.35;;;6.60;99.90;;;6.84;71.42;102191.97;4953234;28;20501;-73
2023/04/05 04:50:58;;;;;;;24.63;16.45;;;6.60;99.90;;;6.85;71.16;102190.25;4988497;28;20050;-73
2023/04/05 04:53:30;;;;;;;25.42;16.33;;;6.60;99.90;;;6.87;70.90;102192.06;4993048;28;20067;-72
2023/04/05 04:55:58;;;;;;;22.88;16.08;;;6.60;99.90;;;6.93;71.09;102191.38;4994013;28;20043;-72
2023/04/05 04:58:26;;;;;;;24.27;15.82;;;6.70;99.90;;;6.96;71.00;102187.09;4994345;28;20081;-73
2023/04/05 05:01:10;;;;;;;25.60;17.48;;;6.70;99.90;;;6.99;70.83;102188.91;4992938;28;20050;-73
2023/04/05 05:03:38;;;;;;;21.02;17.08;;;6.80;99.90;;;6.97;70.81;102194.13;4993814;28;20042;-73
2023/04/05 05:06:08;;;;;;;26.10;16.90;;;6.70;99.90;;;6.99;70.87;102188.91;4993879;28;20480;-73
2023/04/05 05:08:37;;;;;;;21.05;17.45;;;6.70;99.90;;;7.06;70.91;102185.66;4992706;28;20096;-73
2023/04/05 05:11:07;;;;;;;24.08;17.45;;;6.80;99.90;;;7.04;70.49;102189.97;4993722;28;20050;-73
2023/04/05 05:13:36;;;;;;;27.05;17.75;;;6.80;99.90;;;7.02;70.61;102195.19;4992376;28;20069;-72
2023/04/05 05:16:05;;;;;;;22.00;16.30;;;6.80;99.90;;;7.02;70.84;102199.56;4993193;28;20128;-73
2023/04/05 05:18:34;;;;;;;26.25;17.23;;;6.80;99.90;;;7.02;70.96;102196.91;4992607;28;20054;-72
2023/04/05 05:21:02;;;;;;;24.70;17.75;;;6.80;99.90;;;7.06;71.32;102197.09;4993334;28;20459;-73
2023/04/05 05:23:32;;;;;;;25.23;18.52;;;6.80;99.90;;;7.15;71.46;102199.09;4993748;28;20078;-71
2023/04/05 05:26:02;;;;;;;25.45;18.08;;;6.80;99.90;;;7.19;71.59;102204.50;4992478;28;20373;-75
2023/04/05 05:28:30;;;;;;;26.90;18.38;;;6.90;99.90;;;7.30;71.55;102204.81;4994053;28;20073;-75
2023/04/05 05:30:59;;;;;;;31.23;19.52;;;7.00;99.90;;;7.41;71.27;102202.50;4993446;28;20117;-72
2023/04/05 05:33:28;;;;;;;29.02;18.67;;;7.00;99.90;;;7.51;70.66;102207.19;4993298;28;20042;-72
2023/04/05 05:35:56;;;;;;;28.55;17.95;;;7.10;99.90;;;7.62;70.91;102209.31;4993293;28;20085;-72
2023/04/05 05:38:24;;;;;;;29.08;19.10;;;7.30;99.90;;;7.69;70.46;102216.50;4992596;28;20122;-72
2023/04/05 05:40:57;;;;;;;28.88;19.15;;;7.40;99.90;;;7.85;70.00;102210.84;4993291;28;20038;-72
2023/04/05 05:43:26;;;;;;;27.98;19.33;;;7.50;99.90;;;7.92;69.63;102215.41;4993209;28;20506;-72
2023/04/05 05:45:54;;;;;;;24.35;18.50;;;7.60;99.90;;;8.02;69.25;102217.47;4993329;28;20046;-72
2023/04/05 05:48:22;;;;;;;30.73;19.75;;;7.70;99.90;;;8.10;69.02;102213.31;4993401;28;20065;-70
2023/04/05 05:50:51;;;;;;;25.75;19.23;;;7.80;99.90;;;8.15;68.58;102221.31;4993506;28;20042;-72
2023/04/05 05:53:19;;;;;;;28.15;20.05;;;7.90;99.90;;;8.23;68.70;102221.53;4993318;28;20121;-73
2023/04/05 05:55:47;;;;;;;27.25;19.38;;;8.00;99.90;;;8.33;68.29;102218.31;4993693;28;20043;-72
2023/04/05 05:58:17;;;;;;;28.90;19.10;;;8.10;99.90;;;8.52;68.13;102225.84;4993300;28;20042;-72
2023/04/05 06:00:46;;;;;;;27.90;19.20;;;8.20;99.90;;;8.64;67.65;102213.88;4993648;28;20495;-72
2023/04/05 06:03:18;;;;;;;31.42;19.65;;;8.40;99.90;;;8.89;66.97;102218.00;4993223;28;20062;-72
2023/04/05 06:05:51;;;;;;;25.15;18.35;;;8.60;99.90;;;9.13;66.02;102218.56;4992939;28;20129;-72
2023/04/05 06:08:20;;;;;;;30.52;19.65;;;8.90;99.90;;;9.36;65.65;102214.72;4992027;28;20455;-72
2023/04/05 06:10:49;;;;;;;30.65;19.88;;;9.10;99.90;;;9.43;64.56;102189.31;4993141;28;20050;-72
2023/04/05 06:13:19;;;;;;;30.10;19.73;;;9.30;99.90;;;9.59;64.11;102189.69;4992970;28;20053;-72
2023/04/05 06:15:48;;;;;;;31.17;18.35;;;9.40;99.90;;;9.83;63.65;102221.88;4993181;28;20128;-72
2023/04/05 06:18:17;;;;;;;26.63;18.58;;;9.50;99.90;;;9.99;63.00;102216.03;4992958;28;20053;-72
2023/04/05 06:20:45;;;;;;;28.83;19.27;;;9.60;99.90;;;10.05;62.61;102212.59;4992648;28;20089;-72
2023/04/05 06:23:14;;;;;;;28.88;19.52;;;9.80;99.90;;;10.20;62.41;102210.28;4992769;28;20137;-72
2023/04/05 06:25:44;;;;;;;25.98;18.42;;;9.90;99.90;;;10.30;62.25;102209.59;4991846;28;20054;-72
2023/04/05 06:28:12;;;;;;;29.70;19.20;;;10.00;99.90;;;10.57;61.80;102206.53;4993131;28;20042;-72
2023/04/05 06:30:42;;;;;;;26.98;19.23;;;10.20;99.90;;;10.68;61.25;102213.78;4993404;28;20054;-73
2023/04/05 06:33:10;;;;;;;26.30;19.10;;;10.40;99.90;;;9.95;61.35;102171.00;4992794;28;20046;-72
2023/04/05 06:35:39;;;;;;;27.60;19.52;;;10.00;99.90;;;9.81;63.54;102201.56;4992649;28;20042;-72
2023/04/05 06:38:08;;;;;;;26.15;19.08;;;9.60;99.90;;;9.97;62.45;102193.97;4993238;28;20069;-72
2023/04/05 06:40:36;;;;;;;25.38;18.42;;;9.70;99.90;;;10.19;62.53;102205.88;4992628;28;20096;-72
2023/04/05 06:43:05;;;;;;;26.00;17.85;;;9.80;99.90;;;10.20;61.99;102209.41;4993160;28;20047;-72
2023/04/05 06:45:34;;;;;;;25.23;18.05;;;9.90;99.90;;;9.66;62.40;102116.69;4991640;28;20054;-72
2023/04/05 06:48:04;;;;;;;24.85;19.20;;;10.00;99.90;;;10.78;62.12;102210.44;4992646;28;20057;-72
2023/04/05 06:50:32;;;;;;;26.40;19.83;;;10.30;99.90;;;10.97;61.31;102210.72;4996268;28;20050;-72
2023/04/05 06:53:00;;;;;;;24.67;18.70;;;10.60;99.90;;;10.96;60.41;102209.84;4996332;28;20045;-73
2023/04/05 06:55:29;;;;;;;26.63;18.85;;;10.60;99.90;;;10.87;61.31;102210.59;4996342;28;20051;-73
2023/04/05 06:57:57;;;;;;;26.23;19.00;;;10.50;99.90;;;10.62;61.64;102215.47;4996259;28;20057;-73
2023/04/05 07:00:26;;;;;;;24.38;19.55;;;10.20;99.90;;;10.36;62.06;102212.34;4996171;28;20488;-73
2023/04/05 07:02:54;;;;;;;25.88;19.15;;;10.00;99.90;;;10.08;63.27;102204.75;4996189;28;20387;-73
2023/04/05 07:05:24;;;;;;;26.88;20.25;;;9.60;99.90;;;9.40;63.76;102213.91;4995020;28;20050;-74
2023/04/05 07:07:52;;;;;;;26.25;20.45;;;9.10;99.90;;;8.82;66.63;102201.13;4995982;28;20050;-73
2023/04/05 07:10:20;;;;;;;26.10;20.30;;;8.50;99.90;;;8.94;66.73;102204.03;4995938;28;20070;-73
2023/04/05 07:12:49;;;;;;;32.75;22.65;;;8.40;99.90;;;9.23;65.85;102207.38;4995932;28;20448;-73
2023/04/05 07:15:18;;;;;;;33.30;22.10;;;8.70;99.90;;;9.42;66.30;102209.56;4995818;28;20065;-73
2023/04/05 07:17:46;;;;;;;31.95;23.52;;;8.80;99.90;;;9.61;65.67;102201.16;4995848;28;20574;-74
2023/04/05 07:20:15;;;;;;;30.48;22.08;;;9.10;99.90;;;9.66;66.00;102114.97;4994578;28;20162;-74
2023/04/05 07:22:44;;;;;;;28.25;21.83;;;9.60;99.90;;;9.70;65.68;102206.63;4996081;28;20093;-73
2023/04/05 07:25:13;;;;;;;31.47;22.20;;;9.40;99.90;;;9.50;63.36;102213.25;4995814;28;20069;-73
2023/04/05 07:27:41;;;;;;;35.35;23.13;;;9.20;99.90;;;9.80;65.31;102205.97;4995533;28;20084;-74
2023/04/05 07:30:11;;;;;;;34.70;22.48;;;9.30;99.90;;;10.21;63.77;102203.25;4994706;28;20070;-74
2023/04/05 07:32:42;;;;;;;36.47;22.92;;;9.70;99.90;;;10.41;63.14;102207.16;4995758;28;20377;-75
2023/04/05 07:35:10;;;;;;;33.63;20.92;;;9.90;99.90;;;9.62;61.85;102195.00;4994410;28;20062;-74
2023/04/05 07:37:39;;;;;;;31.42;21.95;;;9.50;99.90;;;9.82;63.60;102198.06;4994206;28;20074;-75
2023/04/05 07:40:11;;;;;;;31.67;21.95;;;9.30;99.90;;;9.84;63.35;102193.69;4994632;28;20054;-74
2023/04/05 07:42:39;;;;;;;35.53;22.05;;;9.40;99.90;;;9.68;63.17;102194.22;4995407;28;20073;-75
2023/04/05 07:45:09;;;;;;;33.30;22.10;;;9.30;99.90;;;9.74;63.80;102197.00;4994110;28;20053;-74
2023/04/05 07:47:37;;;;;;;28.38;21.27;;;9.40;99.90;;;9.54;63.65;102179.88;4995171;28;20448;-75
2023/04/05 07:50:08;;;;;;;30.77;21.20;;;9.20;99.90;;;10.10;62.93;102211.00;4995203;28;20046;-75
2023/04/05 07:52:37;;;;;;;30.25;21.02;;;9.60;99.90;;;10.21;62.77;102184.75;4995248;28;20042;-73
2023/04/05 07:55:07;;;;;;;27.33;20.70;;;9.90;99.90;;;10.04;61.64;102182.63;4995273;28;20456;-73
2023/04/05 07:57:36;;;;;;;30.33;21.15;;;9.80;99.90;;;10.21;61.29;102184.75;4995202;28;20054;-74
2023/04/05 08:00:10;;;;;;;30.10;20.33;;;9.80;99.90;;;9.94;61.25;102183.34;4994726;28;20047;-74
2023/04/05 08:02:42;;;;;;;31.00;20.48;;;9.60;99.90;;;10.25;61.81;102183.94;4995464;28;20042;-74
2023/04/05 08:05:11;;;;;;;27.92;20.42;;;9.80;99.90;;;10.40;60.63;102178.91;4995201;28;20124;-74
2023/04/05 08:07:40;;;;;;;27.85;20.00;;;10.00;99.90;;;10.27;59.69;102174.28;4994671;28;20105;-74
2023/04/05 08:10:09;;;;;;;29.90;21.40;;;10.10;99.90;;;10.60;61.05;102180.16;4994925;28;20467;-74
2023/04/05 08:12:39;;;;;;;26.70;20.85;;;10.20;99.90;;;11.21;58.92;102190.78;4995205;28;20046;-74
2023/04/05 08:15:08;;;;;;;28.92;19.63;;;10.80;99.90;;;11.55;58.68;102193.06;4993675;28;20376;-75
2023/04/05 08:17:37;;;;;;;30.10;19.88;;;11.10;99.90;;;12.02;57.38;102185.66;4995302;28;20050;-75
2023/04/05 08:20:07;;;;;;;25.02;19.38;;;11.60;99.90;;;11.93;56.14;102185.56;4994664;28;20054;-75
2023/04/05 08:22:36;;;;;;;26.52;19.50;;;11.70;99.90;;;11.84;56.89;102188.13;4994729;28;20042;-74
2023/04/05 08:25:05;;;;;;;27.10;19.00;;;11.50;99.90;;;12.50;55.34;102190.59;4994869;28;20042;-74
2023/04/05 08:27:34;;;;;;;27.95;19.27;;;12.10;99.90;;;12.80;54.23;102185.50;4994714;28;20039;-74
2023/04/05 08:30:05;;;;;;;29.42;19.63;;;12.50;99.90;;;13.00;53.97;102188.31;4994460;28;20404;-75
2023/04/05 08:32:34;;;;;;;26.25;17.17;;;12.70;99.90;;;12.96;51.34;102195.38;4994467;28;20052;-74
2023/04/05 08:35:03;;;;;;;28.75;17.80;;;12.60;99.90;;;13.62;52.10;102200.22;4994346;28;20043;-73
2023/04/05 08:37:34;;;;;;;23.65;17.58;;;13.20;99.90;;;13.73;49.75;102192.28;4994338;28;20427;-74
2023/04/05 08:40:03;;;;;;;25.08;17.90;;;13.40;99.90;;;13.83;48.58;102184.34;4994634;28;20038;-73
2023/04/05 08:42:37;;;;;;;28.90;18.42;;;13.60;99.90;;;13.82;48.01;102187.03;4994239;28;20122;-74
2023/04/05 08:45:11;;;;;;;26.05;17.55;;;13.50;99.90;;;14.45;47.68;102181.84;4994089;28;20058;-72
2023/04/05 08:47:40;;;;;;;22.38;17.55;;;14.10;99.90;;;14.89;45.86;102184.50;4994116;28;20460;-70
2023/04/05 08:50:12;;;;;;;21.50;16.77;;;14.50;99.90;;;15.15;44.71;102188.94;4994573;28;20042;-72
2023/04/05 08:52:48;;;;;;;24.08;17.15;;;14.90;99.90;;;15.14;43.80;102173.81;4994301;28;20057;-73
2023/04/05 08:55:17;;;;;;;24.67;16.48;;;15.00;99.90;;;15.64;42.47;102194.16;4994110;28;20053;-72
2023/04/05 08:57:53;;;;;;;24.92;18.33;;;15.30;99.90;;;15.90;42.51;102195.78;4993926;28;20054;-74
2023/04/05 09:00:23;;;;;;;27.30;16.98;;;15.60;99.90;;;16.03;41.53;102193.94;4993909;28;20177;-74
2023/04/05 09:02:56;;;;;;;24.73;19.40;;;15.80;99.90;;;14.88;42.75;102194.28;4993028;28;20050;-75
2023/04/05 09:05:26;;;;;;;22.00;18.50;;;14.90;99.90;;;15.25;43.79;102176.47;4993968;28;20053;-74
2023/04/05 09:07:55;;;;;;;22.90;18.05;;;14.90;99.90;;;15.81;42.78;102192.28;4994005;28;20046;-75
2023/04/05 09:10:24;;;;;;;23.48;16.92;;;15.40;99.90;;;16.11;41.80;102216.13;4994086;28;20050;-74
2023/04/05 09:12:53;;;;;;;25.40;18.50;;;15.80;99.90;;;16.34;40.94;102187.50;4992639;28;20065;-73
2023/04/05 09:15:25;;;;;;;25.17;17.60;;;16.00;99.90;;;16.39;40.36;102191.06;4994128;28;20043;-73
2023/04/05 09:17:56;;;;;;;27.67;17.73;;;16.10;99.90;;;15.79;39.26;102189.63;4992431;28;20108;-75
2023/04/05 09:20:25;;;;;;;21.77;16.88;;;15.80;99.90;;;15.78;40.68;102179.84;4993764;28;20054;-73
2023/04/05 09:22:57;;;;;;;22.63;16.55;;;15.50;99.90;;;16.19;39.54;102190.28;4993588;28;20046;-73
2023/04/05 09:25:37;;;;;;;21.70;17.35;;;15.80;99.90;;;16.54;39.09;102187.41;4990638;28;20050;-74
2023/04/05 09:28:07;;;;;;;22.90;17.27;;;16.20;99.90;;;16.74;39.02;102210.38;4991936;28;20075;-72
2023/04/05 09:30:38;;;;;;;23.20;16.37;;;16.50;99.90;;;15.73;38.76;102183.44;4992574;28;20074;-78
2023/04/05 09:33:09;;;;;;;21.13;17.20;;;15.70;99.90;;;16.11;39.89;102182.31;4991938;28;20074;-70
2023/04/05 09:35:38;;;;;;;21.92;16.75;;;15.70;99.90;;;16.58;39.71;102184.72;4993211;28;20073;-75
2023/04/05 09:38:06;;;;;;;24.95;18.23;;;16.20;99.90;;;16.35;38.97;102157.25;4991872;28;20057;-75
2023/04/05 09:40:41;;;;;;;;;;;16.20;99.90;;;16.40;39.17;102181.25;4992622;28;20414;-76
2023/04/05 09:43:10;;;;;;;25.70;18.00;;;16.10;99.90;;;16.34;40.60;102182.16;4992818;28;19925;-75
2023/04/05 09:45:42;;;;;;;21.75;17.42;;;16.00;99.90;;;16.51;38.46;102185.63;4992824;28;20121;-75
2023/04/05 09:48:12;;;;;;;26.50;16.98;;;16.20;99.90;;;16.44;38.83;102183.88;4992092;28;20459;-75
2023/04/05 09:50:40;;;;;;;24.50;17.42;;;16.10;99.90;;;16.66;37.26;102180.19;4993069;28;20062;-74
2023/04/05 09:53:14;;;;;;;21.90;17.02;;;16.30;99.90;;;16.81;36.08;102180.06;4992672;28;20035;-73
2023/04/05 09:55:43;;;;;;;23.25;17.65;;;16.50;97.10;;;16.55;37.09;102176.69;4991724;28;20070;-70
2023/04/05 09:58:13;;;;;;;23.67;18.00;;;16.40;99.90;;;15.65;37.64;102171.91;4992807;28;20132;-73
2023/04/05 10:00:52;;;;;;;27.27;18.52;;;15.40;99.90;;;14.99;38.64;102162.28;4991568;28;20054;-75
2023/04/05 10:03:30;;;;;;;24.08;18.27;;;14.80;99.90;;;15.00;39.83;102161.41;4992614;28;20070;-74
2023/04/05 10:05:59;;;;;;;24.80;18.45;;;14.50;99.90;;;14.50;39.65;102161.44;4992446;28;20522;-73
2023/04/05 10:08:28;;;;;;;26.13;18.75;;;14.10;99.90;;;14.51;41.09;102146.34;4992370;28;20065;-74
2023/04/05 10:10:57;;;;;;;25.83;18.17;;;14.00;99.90;;;15.04;40.14;102147.19;4992513;28;20129;-72
2023/04/05 10:13:28;;;;;;;24.23;18.42;;;14.60;99.90;;;15.78;40.45;102153.16;4992748;28;20108;-70
2023/04/05 10:16:02;;;;;;;23.77;18.67;;;15.30;99.90;;;15.99;39.06;102152.13;4992409;28;20065;-71
2023/04/05 10:18:40;;;;;;;23.02;17.85;;;15.70;99.90;;;16.49;38.47;102149.16;4992546;28;20081;-72
2023/04/05 10:21:11;;;;;;;24.05;18.48;;;16.10;99.90;;;16.72;37.43;102153.44;4990996;28;20055;-72
2023/04/05 10:23:44;;;;;;;26.58;18.58;;;16.50;99.90;;;16.97;36.77;102154.97;4992943;28;20475;-73
2023/04/05 10:26:20;;;;;;;23.25;18.30;;;16.70;99.90;;;17.23;37.49;102146.63;4996327;28;20073;-72
2023/04/05 10:28:57;;;;;;;25.23;18.65;;;17.00;99.90;;;17.52;37.53;102149.00;4996323;28;20089;-72